HTX225 EDDF-EHRD
Flight info
| Callsign | HTX225 |
|---|---|
| Flight time | 0h 57m |
| Altitude | 24000 |
| Route | MARUN8M/25C MARUN Y152 ARPEG/N0457F320 Z850 HMM L602 RKN |
| Aircraft | B738/M-SDE2E3FGHIRWXY/LB1 |
Departure
| Time | 2026-05-04 16:32 |
|---|---|
| Airport | Frankfurt Main Airport (EDDF) |
Arrival
| Time | 2026-05-04 17:29 |
|---|---|
| Airport | Rotterdam The Hague Airport (EHRD) |
| Time | Latitude | Longitude | Altitude | Speed | Heading |
|---|---|---|---|---|---|
| 2026-05-04 15:53 | 50.04484 | 8.56536 | 361 ft | 0 kts | 163° |
| 2026-05-04 16:14 | 50.04504 | 8.56521 | 364 ft | 4 kts | 151° |
| 2026-05-04 16:15 | 50.04550 | 8.56441 | 358 ft | 1 kts | 112° |
| 2026-05-04 16:16 | 50.04550 | 8.56440 | 358 ft | 1 kts | 112° |
| 2026-05-04 16:17 | 50.04549 | 8.56422 | 360 ft | 4 kts | 189° |
| 2026-05-04 16:18 | 50.04547 | 8.56422 | 360 ft | 0 kts | 191° |
| 2026-05-04 16:20 | 50.04555 | 8.56425 | 356 ft | 6 kts | 229° |
| 2026-05-04 16:21 | 50.04562 | 8.56462 | 362 ft | 1 kts | 230° |
| 2026-05-04 16:22 | 50.04554 | 8.56451 | 359 ft | 0 kts | 216° |
| 2026-05-04 16:23 | 50.04513 | 8.56373 | 360 ft | 11 kts | 246° |
| 2026-05-04 16:24 | 50.04348 | 8.56054 | 358 ft | 0 kts | 158° |
| 2026-05-04 16:26 | 50.04325 | 8.56069 | 354 ft | 10 kts | 156° |
| 2026-05-04 16:26 | 50.04148 | 8.56363 | 352 ft | 17 kts | 81° |
| 2026-05-04 16:27 | 50.04229 | 8.56702 | 362 ft | 16 kts | 71° |
| 2026-05-04 16:28 | 50.04404 | 8.57435 | 363 ft | 22 kts | 69° |
| 2026-05-04 16:28 | 50.04517 | 8.57908 | 365 ft | 0 kts | 69° |
| 2026-05-04 16:29 | 50.04635 | 8.58402 | 369 ft | 16 kts | 70° |
| 2026-05-04 16:30 | 50.04480 | 8.58557 | 369 ft | 0 kts | 248° |
| 2026-05-04 16:31 | 50.04476 | 8.58541 | 369 ft | 17 kts | 248° |
| 2026-05-04 16:31 | 50.03522 | 8.54683 | 830 ft | 196 kts | 249° |
| 2026-05-04 16:32 | 50.01551 | 8.49257 | 3320 ft | 217 kts | 203° |
| 2026-05-04 16:33 | 49.98640 | 8.48109 | 5017 ft | 213 kts | 195° |
| 2026-05-04 16:33 | 49.95820 | 8.46937 | 6589 ft | 216 kts | 196° |
| 2026-05-04 16:34 | 49.92755 | 8.45421 | 6951 ft | 238 kts | 209° |
| 2026-05-04 16:34 | 49.91582 | 8.43621 | 6981 ft | 242 kts | 238° |
| 2026-05-04 16:35 | 49.92265 | 8.36125 | 6973 ft | 270 kts | 319° |
| 2026-05-04 16:35 | 49.97730 | 8.32272 | 6959 ft | 293 kts | 335° |
| 2026-05-04 16:36 | 49.99610 | 8.31081 | 6951 ft | 290 kts | 335° |
| 2026-05-04 16:36 | 50.03323 | 8.28669 | 6955 ft | 287 kts | 336° |
| 2026-05-04 16:37 | 50.07241 | 8.28889 | 6973 ft | 295 kts | 18° |
| 2026-05-04 16:37 | 50.09205 | 8.29920 | 6961 ft | 297 kts | 19° |
| 2026-05-04 16:37 | 50.13103 | 8.32042 | 6961 ft | 295 kts | 19° |
| 2026-05-04 16:38 | 50.16969 | 8.34110 | 6967 ft | 295 kts | 19° |
| 2026-05-04 16:39 | 50.22799 | 8.37188 | 6974 ft | 295 kts | 19° |
| 2026-05-04 16:39 | 50.26702 | 8.39244 | 6978 ft | 296 kts | 19° |
| 2026-05-04 16:40 | 50.30612 | 8.41320 | 6982 ft | 297 kts | 19° |
| 2026-05-04 16:40 | 50.34525 | 8.43455 | 6996 ft | 297 kts | 19° |
| 2026-05-04 16:41 | 50.38434 | 8.45592 | 7742 ft | 300 kts | 19° |
| 2026-05-04 16:41 | 50.44391 | 8.48851 | 10255 ft | 308 kts | 20° |
| 2026-05-04 16:42 | 50.51144 | 8.52366 | 10920 ft | 375 kts | 17° |
| 2026-05-04 16:43 | 50.56277 | 8.54769 | 12120 ft | 388 kts | 17° |
| 2026-05-04 16:43 | 50.61460 | 8.57227 | 13618 ft | 395 kts | 17° |
| 2026-05-04 16:43 | 50.64101 | 8.58493 | 14344 ft | 399 kts | 17° |
| 2026-05-04 16:44 | 50.74963 | 8.63728 | 17202 ft | 418 kts | 17° |
| 2026-05-04 16:45 | 50.80726 | 8.64897 | 18408 ft | 425 kts | 346° |
| 2026-05-04 16:46 | 50.87728 | 8.57080 | 20227 ft | 419 kts | 307° |
| 2026-05-04 16:46 | 50.91441 | 8.49927 | 21330 ft | 425 kts | 306° |
| 2026-05-04 16:47 | 50.95284 | 8.42634 | 22338 ft | 433 kts | 307° |
| 2026-05-04 16:47 | 50.99182 | 8.35331 | 23422 ft | 438 kts | 307° |
| 2026-05-04 16:48 | 51.06483 | 8.26138 | 23995 ft | 465 kts | 329° |
| 2026-05-04 16:48 | 51.09385 | 8.23717 | 23992 ft | 471 kts | 328° |
| 2026-05-04 16:49 | 51.15109 | 8.18742 | 23984 ft | 469 kts | 327° |
| 2026-05-04 16:49 | 51.20789 | 8.13632 | 23987 ft | 467 kts | 327° |
| 2026-05-04 16:50 | 51.26416 | 8.08558 | 23996 ft | 467 kts | 327° |
| 2026-05-04 16:50 | 51.32086 | 8.03452 | 23992 ft | 467 kts | 327° |
| 2026-05-04 16:51 | 51.37747 | 7.98346 | 23974 ft | 466 kts | 327° |
| 2026-05-04 16:51 | 51.40542 | 7.95818 | 23976 ft | 465 kts | 327° |
| 2026-05-04 16:51 | 51.46213 | 7.90749 | 23971 ft | 465 kts | 327° |
| 2026-05-04 16:52 | 51.52187 | 7.86799 | 23975 ft | 470 kts | 340° |
| 2026-05-04 16:52 | 51.55341 | 7.85342 | 23980 ft | 471 kts | 341° |
| 2026-05-04 16:53 | 51.61656 | 7.82442 | 23970 ft | 471 kts | 341° |
| 2026-05-04 16:53 | 51.71057 | 7.77932 | 23971 ft | 470 kts | 340° |
| 2026-05-04 16:54 | 51.74165 | 7.76419 | 23976 ft | 470 kts | 340° |
| 2026-05-04 16:55 | 51.85952 | 7.68137 | 23977 ft | 456 kts | 310° |
| 2026-05-04 16:55 | 51.89207 | 7.59588 | 23990 ft | 447 kts | 291° |
| 2026-05-04 16:56 | 51.91836 | 7.50372 | 23950 ft | 451 kts | 291° |
| 2026-05-04 16:56 | 51.95822 | 7.36690 | 23961 ft | 447 kts | 292° |
| 2026-05-04 16:57 | 51.97161 | 7.32141 | 23973 ft | 446 kts | 291° |
| 2026-05-04 16:57 | 51.99834 | 7.23053 | 23962 ft | 445 kts | 291° |
| 2026-05-04 16:58 | 52.03812 | 7.09446 | 23961 ft | 444 kts | 291° |
| 2026-05-04 16:58 | 52.05118 | 7.04963 | 23848 ft | 441 kts | 291° |
| 2026-05-04 16:59 | 52.07699 | 6.96081 | 22654 ft | 428 kts | 291° |
| 2026-05-04 17:00 | 52.12498 | 6.78967 | 20143 ft | 408 kts | 294° |
| 2026-05-04 17:00 | 52.15602 | 6.66690 | 19759 ft | 376 kts | 287° |
| 2026-05-04 17:01 | 52.17234 | 6.58949 | 19737 ft | 345 kts | 287° |
| 2026-05-04 17:01 | 52.18767 | 6.51866 | 19733 ft | 316 kts | 288° |
| 2026-05-04 17:02 | 52.20179 | 6.45429 | 19735 ft | 290 kts | 288° |
| 2026-05-04 17:02 | 52.21482 | 6.39495 | 19741 ft | 266 kts | 287° |
| 2026-05-04 17:03 | 52.22096 | 6.36693 | 19743 ft | 257 kts | 287° |
| 2026-05-04 17:03 | 52.22694 | 6.33965 | 19768 ft | 260 kts | 287° |
| 2026-05-04 17:03 | 52.23951 | 6.28206 | 19776 ft | 272 kts | 287° |
| 2026-05-04 17:04 | 52.25262 | 6.22183 | 18520 ft | 302 kts | 288° |
| 2026-05-04 17:04 | 52.26781 | 6.15173 | 16179 ft | 349 kts | 289° |
| 2026-05-04 17:05 | 52.28450 | 6.07464 | 14618 ft | 363 kts | 289° |
| 2026-05-04 17:05 | 52.30062 | 5.99997 | 14422 ft | 335 kts | 289° |
| 2026-05-04 17:06 | 52.31549 | 5.93079 | 14266 ft | 310 kts | 288° |
| 2026-05-04 17:06 | 52.32242 | 5.89845 | 14192 ft | 299 kts | 289° |
| 2026-05-04 17:07 | 52.33580 | 5.83583 | 13779 ft | 285 kts | 288° |
| 2026-05-04 17:07 | 52.34013 | 5.81554 | 13401 ft | 285 kts | 288° |
| 2026-05-04 17:07 | 52.34885 | 5.77457 | 12690 ft | 283 kts | 288° |
| 2026-05-04 17:07 | 52.35531 | 5.74416 | 12185 ft | 282 kts | 288° |
| 2026-05-04 17:08 | 52.36165 | 5.71433 | 11732 ft | 279 kts | 288° |
| 2026-05-04 17:08 | 52.37435 | 5.65433 | 10678 ft | 279 kts | 288° |
| 2026-05-04 17:08 | 52.38068 | 5.62441 | 10256 ft | 276 kts | 288° |
| 2026-05-04 17:09 | 52.38461 | 5.59394 | 9751 ft | 273 kts | 265° |
| 2026-05-04 17:09 | 52.38206 | 5.56351 | 9287 ft | 268 kts | 259° |
| 2026-05-04 17:09 | 52.37903 | 5.53366 | 8783 ft | 268 kts | 260° |
| 2026-05-04 17:10 | 52.37295 | 5.47372 | 7833 ft | 265 kts | 260° |
| 2026-05-04 17:10 | 52.36419 | 5.38599 | 6777 ft | 250 kts | 261° |
| 2026-05-04 17:11 | 52.36142 | 5.35808 | 6700 ft | 247 kts | 260° |
| 2026-05-04 17:11 | 52.35861 | 5.32988 | 6682 ft | 256 kts | 260° |
| 2026-05-04 17:11 | 52.35281 | 5.27175 | 6600 ft | 261 kts | 260° |
| 2026-05-04 17:12 | 52.34988 | 5.24243 | 6542 ft | 260 kts | 261° |
| 2026-05-04 17:12 | 52.34404 | 5.18416 | 6493 ft | 259 kts | 260° |
| 2026-05-04 17:13 | 52.33391 | 5.09817 | 6385 ft | 258 kts | 242° |
| 2026-05-04 17:14 | 52.29407 | 5.03976 | 6313 ft | 259 kts | 217° |
| 2026-05-04 17:14 | 52.27949 | 5.02214 | 6286 ft | 260 kts | 217° |
| 2026-05-04 17:14 | 52.25048 | 4.98689 | 6204 ft | 261 kts | 217° |
| 2026-05-04 17:15 | 52.23597 | 4.96914 | 6174 ft | 260 kts | 217° |
| 2026-05-04 17:15 | 52.20721 | 4.93379 | 6109 ft | 260 kts | 217° |
| 2026-05-04 17:16 | 52.18302 | 4.90401 | 6064 ft | 259 kts | 218° |
| 2026-05-04 17:16 | 52.13995 | 4.85096 | 5952 ft | 260 kts | 218° |
| 2026-05-04 17:17 | 52.12549 | 4.83316 | 5920 ft | 260 kts | 217° |
| 2026-05-04 17:17 | 52.08208 | 4.77980 | 5816 ft | 261 kts | 217° |
| 2026-05-04 17:18 | 52.06759 | 4.76201 | 5777 ft | 261 kts | 218° |
| 2026-05-04 17:18 | 52.03861 | 4.72648 | 5713 ft | 261 kts | 217° |
| 2026-05-04 17:19 | 52.00977 | 4.69119 | 5636 ft | 260 kts | 218° |
| 2026-05-04 17:19 | 51.98078 | 4.65575 | 5592 ft | 260 kts | 217° |
| 2026-05-04 17:20 | 51.95170 | 4.62025 | 5537 ft | 265 kts | 217° |
| 2026-05-04 17:20 | 51.92232 | 4.58448 | 5462 ft | 264 kts | 217° |
| 2026-05-04 17:20 | 51.90767 | 4.56667 | 5424 ft | 261 kts | 217° |
| 2026-05-04 17:21 | 51.88181 | 4.52609 | 5365 ft | 257 kts | 232° |
| 2026-05-04 17:21 | 51.86001 | 4.48083 | 5297 ft | 254 kts | 232° |
| 2026-05-04 17:22 | 51.84898 | 4.45818 | 5277 ft | 258 kts | 232° |
| 2026-05-04 17:22 | 51.83771 | 4.43528 | 5237 ft | 261 kts | 232° |
| 2026-05-04 17:23 | 51.80365 | 4.36710 | 5117 ft | 259 kts | 231° |
| 2026-05-04 17:23 | 51.79229 | 4.34453 | 5086 ft | 258 kts | 231° |
| 2026-05-04 17:23 | 51.77214 | 4.29717 | 4991 ft | 257 kts | 257° |
| 2026-05-04 17:24 | 51.77235 | 4.26887 | 4978 ft | 253 kts | 287° |
| 2026-05-04 17:24 | 51.81213 | 4.22315 | 4217 ft | 241 kts | 351° |
| 2026-05-04 17:25 | 51.82831 | 4.21905 | 4076 ft | 227 kts | 351° |
| 2026-05-04 17:25 | 51.85788 | 4.21342 | 3874 ft | 201 kts | 9° |
| 2026-05-04 17:26 | 51.87638 | 4.24265 | 3405 ft | 192 kts | 52° |
| 2026-05-04 17:26 | 51.89868 | 4.29387 | 2897 ft | 172 kts | 54° |
| 2026-05-04 17:27 | 51.91115 | 4.32531 | 2468 ft | 162 kts | 56° |
| 2026-05-04 17:27 | 51.92307 | 4.35531 | 1999 ft | 151 kts | 54° |
| 2026-05-04 17:28 | 51.93376 | 4.38219 | 1429 ft | 136 kts | 54° |
| 2026-05-04 17:29 | 51.94955 | 4.42194 | 145 ft | 138 kts | 51° |
| 2026-05-04 17:29 | 51.95902 | 4.44671 | -1 ft | 6 kts | 123° |
| 2026-05-04 17:30 | 51.95870 | 4.44715 | 0 ft | 6 kts | 145° |
| 2026-05-04 17:31 | 51.95732 | 4.44631 | 0 ft | 14 kts | 238° |
| 2026-05-04 17:31 | 51.95582 | 4.44248 | 0 ft | 13 kts | 237° |
| 2026-05-04 17:32 | 51.95468 | 4.43965 | 0 ft | 18 kts | 237° |
| 2026-05-04 17:33 | 51.95321 | 4.43597 | 0 ft | 6 kts | 236° |
| 2026-05-04 17:33 | 51.95269 | 4.43509 | 0 ft | 13 kts | 189° |
| 2026-05-04 17:34 | 51.95054 | 4.43699 | 0 ft | 8 kts | 180° |
| 2026-05-04 17:34 | 51.95017 | 4.43656 | 0 ft | 0 kts | 233° |
| 2026-05-04 17:35 | 51.95000 | 4.43606 | 0 ft | 0 kts | 264° |
| 2026-05-04 17:35 | 51.95014 | 4.43588 | 0 ft | 1 kts | 328° |
| 2026-05-04 17:35 | 51.95028 | 4.43574 | 0 ft | 3 kts | 327° |
| 2026-05-04 17:36 | 51.95038 | 4.43563 | 1 ft | 1 kts | 327° |
| 2026-05-04 17:36 | 51.95039 | 4.43561 | 1 ft | 0 kts | 326° |